Gdf Suez North Sea — HPSQ — position and weather

sailwx.info

Track history (hours):
 
Tides and Currents Weather Stations Pressure Air Temp Water Temp Dewpoint Dewpoint Depression Visibility Wind Speed Wind Dir Waves Ship Positions

Gdf Suez North Sea

Last reported at 2016-May-19 07:11 UTC. Time now 2016-Jul-26 00:42 UTC.
Position N 01°16' E 104°09'.
Warning: this ship's position is months out of date.

Length 190 m; draft 10.4 m.

Type: Ship. MMSI: 373341000.

Date/timePositionNaut miles runAvg speedWind from/ knotsBaromVisibWave heightAir tempDewpointWater temp
2016-May-19 07:11N 01°16' E 104°09'812.6
2016-May-19 06:33N 01°15' E 104°01'5 4.9
2016-May-19 05:33N 01°17' E 103°57'0 0.0
2016-May-19 04:33N 01°17' E 103°57'0 0.0
2016-May-19 03:30N 01°17' E 103°57'0 0.1
2016-May-19 02:30N 01°17' E 103°56'0 0.1
2016-May-19 01:33N 01°17' E 103°56'0 0.0
2016-May-19 00:33N 01°17' E 103°56'0 0.1
2016-May-18 23:33N 01°17' E 103°57'0 0.0
2016-May-18 22:33N 01°17' E 103°57'0 0.0
2016-May-18 21:33N 01°17' E 103°57'0 0.0
2016-May-18 20:30N 01°17' E 103°57'0 0.0
2016-May-18 19:24N 01°17' E 103°57'0 0.0
2016-May-18 18:31N 01°17' E 103°57'0 0.0
2016-May-18 17:33N 01°17' E 103°57'0 0.0
2016-May-18 16:33N 01°17' E 103°57'0 0.1
2016-May-18 15:33N 01°17' E 103°57'0 0.2
2016-May-18 14:33N 01°17' E 103°56'3 3.1
2016-May-18 13:33N 01°14' E 103°57'9 9.3
2016-May-18 12:34N 01°10' E 103°48'10 9.6
2016-May-18 11:33N 01°04' E 103°41'9 9.3
2016-May-18 10:33N 01°07' E 103°32'7310.4
2016-May-18 03:33N 01°46' E 102°31'1312.6
2016-May-18 02:33N 01°51' E 102°19'1512.8
2016-May-18 01:20N 02°00' E 102°07'  
Track history (hours):
 
Tides and Currents Weather Stations Pressure Air Temp Water Temp Dewpoint Dewpoint Depression Visibility Wind Speed Wind Dir Waves Ship Positions

Gdf Suez North Sea

Last reported at 2016-May-19 07:11 UTC. Time now 2016-Jul-26 00:42 UTC.
Position N 01°16' E 104°09'.
Warning: this ship's position is months out of date.

Length 190 m; draft 10.4 m.

Type: Ship. MMSI: 373341000.

Date/timePositionNaut miles runAvg speedWind from/ knotsBaromVisibWave heightAir tempDewpointWater temp
2016-May-19 07:11N 01°16' E 104°09'812.6
2016-May-19 06:33N 01°15' E 104°01'5 4.9
2016-May-19 05:33N 01°17' E 103°57'0 0.0
2016-May-19 04:33N 01°17' E 103°57'0 0.0
2016-May-19 03:30N 01°17' E 103°57'0 0.1
2016-May-19 02:30N 01°17' E 103°56'0 0.1
2016-May-19 01:33N 01°17' E 103°56'0 0.0
2016-May-19 00:33N 01°17' E 103°56'0 0.1
2016-May-18 23:33N 01°17' E 103°57'0 0.0
2016-May-18 22:33N 01°17' E 103°57'0 0.0
2016-May-18 21:33N 01°17' E 103°57'0 0.0
2016-May-18 20:30N 01°17' E 103°57'0 0.0
2016-May-18 19:24N 01°17' E 103°57'0 0.0
2016-May-18 18:31N 01°17' E 103°57'0 0.0
2016-May-18 17:33N 01°17' E 103°57'0 0.0
2016-May-18 16:33N 01°17' E 103°57'0 0.1
2016-May-18 15:33N 01°17' E 103°57'0 0.2
2016-May-18 14:33N 01°17' E 103°56'3 3.1
2016-May-18 13:33N 01°14' E 103°57'9 9.3
2016-May-18 12:34N 01°10' E 103°48'10 9.6
2016-May-18 11:33N 01°04' E 103°41'9 9.3
2016-May-18 10:33N 01°07' E 103°32'7310.4
2016-May-18 03:33N 01°46' E 102°31'1312.6
2016-May-18 02:33N 01°51' E 102°19'1512.8
2016-May-18 01:20N 02°00' E 102°07'  

Dump ship's entire track history